Time;durP1;ratioP1;P1;durP2;ratioP2;P2;SDS_P1;SDS_P2;PMS_P1;PMS_P2;Temp;Humidity;BMP_temperature;BMP_pressure;BME280_temperature;BME280_humidity;BME280_pressure;Samples;Min_cycle;Max_cycle;Signal;HPM_P1;HPM_P2
2023/07/20 00:01:48;;;;;;;0.10;0.10;;;18.40;1.00;;;;;;5008271;28;20068;-84
2023/07/20 00:04:15;;;;;;;0.22;0.22;;;18.30;1.00;;;;;;5020086;28;20387;-83
2023/07/20 00:06:42;;;;;;;0.20;0.20;;;18.30;1.00;;;;;;5016890;28;20431;-83
2023/07/20 00:09:09;;;;;;;0.38;0.30;;;18.20;1.00;;;;;;4999307;28;20049;-83
2023/07/20 00:11:39;;;;;;;0.30;0.30;;;18.10;1.00;;;;;;5041063;28;20053;-84
2023/07/20 00:14:06;;;;;;;0.43;0.10;;;18.10;1.00;;;;;;5020725;28;20064;-83
2023/07/20 00:16:33;;;;;;;0.30;0.22;;;18.00;1.00;;;;;;4997235;28;20136;-82
2023/07/20 00:19:00;;;;;;;0.15;0.15;;;18.00;20.70;;;;;;4993210;28;20041;-82
2023/07/20 00:21:27;;;;;;;0.40;0.30;;;17.90;34.90;;;;;;5002382;28;20465;-85
2023/07/20 00:23:54;;;;;;;0.10;0.10;;;17.80;71.80;;;;;;5019465;28;20055;-82
2023/07/20 00:26:21;;;;;;;0.30;0.22;;;17.80;87.60;;;;;;4995492;28;20635;-83
2023/07/20 00:28:50;;;;;;;0.25;0.20;;;17.80;93.00;;;;;;5006258;28;20037;-82
2023/07/20 00:31:17;;;;;;;0.20;0.20;;;17.70;99.90;;;;;;4989997;28;20447;-83
2023/07/20 00:33:44;;;;;;;0.10;0.10;;;17.70;99.90;;;;;;5021382;28;20922;-83
2023/07/20 00:36:11;;;;;;;0.35;0.20;;;17.70;99.90;;;;;;5011735;28;20737;-83
2023/07/20 00:38:38;;;;;;;0.55;0.30;;;17.70;99.90;;;;;;4998798;28;20065;-83
2023/07/20 00:41:05;;;;;;;0.30;0.30;;;17.70;99.90;;;;;;5033952;28;20049;-83
2023/07/20 00:43:32;;;;;;;0.20;0.20;;;17.70;99.90;;;;;;5017531;28;20052;-83
2023/07/20 00:45:59;;;;;;;0.20;0.20;;;17.70;99.90;;;;;;5049957;28;20502;-84
2023/07/20 00:48:26;;;;;;;0.20;0.17;;;17.60;99.90;;;;;;5010895;28;20083;-82
2023/07/20 00:50:53;;;;;;;0.20;0.20;;;17.60;99.90;;;;;;5035316;28;20071;-83
2023/07/20 00:53:20;;;;;;;0.50;0.40;;;17.50;99.90;;;;;;5022862;28;20053;-82
2023/07/20 00:55:47;;;;;;;0.45;0.32;;;17.50;99.90;;;;;;5003250;28;20146;-82
2023/07/20 00:58:14;;;;;;;0.57;0.55;;;17.50;99.90;;;;;;4972308;28;20286;-82
2023/07/20 01:00:41;;;;;;;0.35;0.32;;;17.50;99.90;;;;;;4984335;28;20050;-83
2023/07/20 01:03:08;;;;;;;0.20;0.20;;;17.30;99.90;;;;;;4991420;28;20045;-82
2023/07/20 01:05:55;;;;;;;0.40;0.30;;;17.20;99.90;;;;;;4984064;28;20586;-82
2023/07/20 01:08:28;;;;;;;0.80;0.25;;;17.00;99.90;;;;;;5022570;28;20098;-82
2023/07/20 01:11:03;;;;;;;0.40;0.40;;;17.00;99.90;;;;;;5019700;28;20179;-82
2023/07/20 01:13:30;;;;;;;0.20;0.20;;;16.90;99.90;;;;;;5009906;28;20060;-82
2023/07/20 01:15:58;;;;;;;0.40;0.30;;;16.90;99.90;;;;;;5002324;28;20091;-82
2023/07/20 01:18:25;;;;;;;0.80;0.50;;;16.90;99.90;;;;;;5001979;28;20073;-84
2023/07/20 01:20:54;;;;;;;0.40;0.32;;;16.80;99.90;;;;;;5023640;28;20156;-83
2023/07/20 01:24:00;;;;;;;0.45;0.40;;;16.80;99.90;;;;;;4996839;28;20045;-82
2023/07/20 01:26:55;;;;;;;0.80;0.30;;;16.70;99.90;;;;;;5045240;28;20121;-82
2023/07/20 01:29:40;;;;;;;0.68;0.40;;;16.70;1.00;;;;;;5027220;28;20045;-82
2023/07/20 01:32:07;;;;;;;0.73;0.40;;;16.50;1.00;;;;;;5017819;28;20522;-82
2023/07/20 01:34:36;;;;;;;0.30;0.30;;;16.40;1.00;;;;;;4992134;28;20057;-80
2023/07/20 01:37:03;;;;;;;0.55;0.40;;;16.40;1.00;;;;;;5003389;28;20358;-82
2023/07/20 01:39:30;;;;;;;0.30;0.30;;;16.30;1.00;;;;;;5007415;28;20053;-84
2023/07/20 01:41:57;;;;;;;0.50;0.40;;;16.40;1.00;;;;;;5004430;28;20049;-84
2023/07/20 01:44:24;;;;;;;0.65;0.40;;;16.40;1.00;;;;;;4988594;28;20052;-84
2023/07/20 01:46:51;;;;;;;0.70;0.40;;;16.40;1.00;;;;;;4985089;28;20119;-84
2023/07/20 01:49:18;;;;;;;0.63;0.30;;;16.40;1.00;;;;;;4977946;28;20057;-84
2023/07/20 01:51:44;;;;;;;0.57;0.43;;;16.40;6.80;;;;;;4991924;28;20095;-84
2023/07/20 01:54:11;;;;;;;0.50;0.38;;;16.40;21.10;;;;;;5000587;28;20647;-84
2023/07/20 01:56:39;;;;;;;0.28;0.20;;;16.40;49.70;;;;;;4991358;28;20049;-83
2023/07/20 01:59:05;;;;;;;0.57;0.40;;;16.40;75.90;;;;;;5010354;28;20064;-81
2023/07/20 02:01:33;;;;;;;0.20;0.20;;;16.50;99.90;;;;;;5015422;28;20040;-82
2023/07/20 02:04:00;;;;;;;0.45;0.45;;;16.50;98.80;;;;;;5012264;28;20045;-84
2023/07/20 02:06:27;;;;;;;0.30;0.30;;;16.50;99.90;;;;;;4991860;28;20053;-84
2023/07/20 02:08:54;;;;;;;0.65;0.40;;;16.50;99.90;;;;;;5010014;28;20049;-83
2023/07/20 02:11:21;;;;;;;0.50;0.35;;;16.40;99.90;;;;;;4990528;28;20052;-84
2023/07/20 02:13:47;;;;;;;0.30;0.28;;;16.40;99.90;;;;;;4978812;28;20145;-81
2023/07/20 02:16:15;;;;;;;0.40;0.30;;;16.50;99.90;;;;;;4976538;28;20129;-84
2023/07/20 02:18:42;;;;;;;0.73;0.40;;;16.40;99.90;;;;;;5014627;28;20041;-84
2023/07/20 02:21:09;;;;;;;0.30;0.30;;;16.30;99.90;;;;;;4992498;28;20057;-84
2023/07/20 02:23:36;;;;;;;0.70;0.45;;;16.30;99.90;;;;;;5016606;28;20423;-83
2023/07/20 02:26:03;;;;;;;0.32;0.30;;;16.30;99.90;;;;;;5014605;28;20048;-82
2023/07/20 02:28:30;;;;;;;0.77;0.50;;;16.20;99.90;;;;;;5014158;28;20049;-83
2023/07/20 02:30:57;;;;;;;0.52;0.50;;;16.20;99.90;;;;;;5030869;28;20064;-82
2023/07/20 02:33:24;;;;;;;0.80;0.40;;;16.20;99.90;;;;;;5014731;28;20851;-82
2023/07/20 02:35:51;;;;;;;0.68;0.43;;;16.10;99.90;;;;;;4998593;28;20057;-83
2023/07/20 02:38:18;;;;;;;0.80;0.50;;;16.10;99.90;;;;;;4991845;28;20053;-82
2023/07/20 02:40:45;;;;;;;0.60;0.50;;;16.00;99.90;;;;;;4976069;28;20053;-81
2023/07/20 02:43:12;;;;;;;0.77;0.45;;;16.00;1.00;;;;;;4986128;28;20092;-82
2023/07/20 02:45:42;;;;;;;0.95;0.45;;;16.10;1.00;;;;;;4983780;28;20053;-82
2023/07/20 02:48:09;;;;;;;1.35;0.60;;;16.10;16.70;;;;;;5026253;28;20045;-82
2023/07/20 02:50:36;;;;;;;0.82;0.60;;;16.10;35.50;;;;;;4996704;28;20085;-82
2023/07/20 02:53:03;;;;;;;0.50;0.45;;;16.00;56.00;;;;;;4998270;28;20045;-82
2023/07/20 02:55:30;;;;;;;1.20;0.60;;;16.00;99.90;;;;;;4981021;28;20056;-82
2023/07/20 02:57:57;;;;;;;0.73;0.57;;;16.00;99.90;;;;;;4984359;28;20464;-83
2023/07/20 03:00:24;;;;;;;0.57;0.50;;;16.00;99.90;;;;;;5001874;28;20401;-82
2023/07/20 03:02:55;;;;;;;0.82;0.63;;;16.00;99.90;;;;;;5027407;28;20048;-82
2023/07/20 03:05:25;;;;;;;0.93;0.50;;;16.10;99.90;;;;;;5017922;28;20049;-82
2023/07/20 03:07:52;;;;;;;0.70;0.50;;;16.20;99.90;;;;;;5041083;28;20048;-82
2023/07/20 03:10:19;;;;;;;1.05;0.63;;;16.20;99.90;;;;;;5023164;28;20099;-83
2023/07/20 03:12:46;;;;;;;0.85;0.60;;;16.20;99.90;;;;;;4997755;28;20049;-82
2023/07/20 03:15:13;;;;;;;1.08;0.80;;;16.20;99.90;;;;;;5010779;28;20085;-81
2023/07/20 03:17:40;;;;;;;1.60;0.70;;;16.20;99.90;;;;;;5025930;28;20052;-82
2023/07/20 03:20:09;;;;;;;1.05;0.60;;;16.10;99.90;;;;;;4998295;28;20051;-82
2023/07/20 03:22:36;;;;;;;0.55;0.50;;;16.10;99.90;;;;;;5014294;28;20056;-82
2023/07/20 03:25:04;;;;;;;0.93;0.60;;;16.10;99.90;;;;;;5027932;28;20507;-82
2023/07/20 03:27:31;;;;;;;0.50;0.50;;;16.10;99.90;;;;;;5020172;28;20386;-82
2023/07/20 03:29:58;;;;;;;0.82;0.60;;;16.10;99.90;;;;;;5006085;28;20064;-82
2023/07/20 03:32:25;;;;;;;0.93;0.68;;;16.00;99.90;;;;;;5005518;28;20045;-81
2023/07/20 03:34:52;;;;;;;1.00;0.70;;;16.00;99.90;;;;;;5036378;28;20075;-82
2023/07/20 03:37:19;;;;;;;0.80;0.50;;;16.00;99.90;;;;;;4984683;28;20114;-82
2023/07/20 03:39:46;;;;;;;1.27;0.75;;;16.00;99.90;;;;;;4987734;28;20059;-82
2023/07/20 03:42:13;;;;;;;0.90;0.50;;;16.00;99.90;;;;;;5004356;28;20052;-82
2023/07/20 03:44:40;;;;;;;0.52;0.45;;;15.90;99.90;;;;;;5009722;28;20064;-82
2023/07/20 03:47:07;;;;;;;0.88;0.70;;;15.90;99.90;;;;;;5010097;28;20050;-81
2023/07/20 03:49:34;;;;;;;0.93;0.73;;;15.80;99.90;;;;;;5005471;28;20114;-82
2023/07/20 03:52:03;;;;;;;0.90;0.60;;;15.80;99.90;;;;;;4993807;28;20045;-82
2023/07/20 03:54:29;;;;;;;0.95;0.52;;;15.80;99.90;;;;;;5007797;28;20055;-82
2023/07/20 03:56:56;;;;;;;0.85;0.60;;;15.80;99.90;;;;;;5039586;28;20102;-82
2023/07/20 03:59:24;;;;;;;1.08;0.77;;;15.80;99.90;;;;;;4998013;28;20049;-82
2023/07/20 04:01:51;;;;;;;0.98;0.77;;;15.80;99.90;;;;;;5009821;28;20049;-82
2023/07/20 04:04:18;;;;;;;1.10;0.80;;;15.70;1.00;;;;;;4983258;28;20045;-82
2023/07/20 04:06:44;;;;;;;0.82;0.60;;;15.70;1.00;;;;;;4993856;28;20054;-82
2023/07/20 04:09:12;;;;;;;0.60;0.50;;;15.70;1.00;;;;;;5008353;28;20045;-81
2023/07/20 04:11:38;;;;;;;0.80;0.70;;;15.70;1.00;;;;;;4990258;28;20124;-81
2023/07/20 04:14:06;;;;;;;0.47;0.32;;;15.70;1.00;;;;;;4990869;28;20072;-82
2023/07/20 04:16:33;;;;;;;0.50;0.50;;;15.70;1.00;;;;;;5012658;28;20413;-81
2023/07/20 04:19:00;;;;;;;0.45;0.45;;;15.70;1.00;;;;;;4997794;28;20183;-82
2023/07/20 04:21:28;;;;;;;0.98;0.70;;;15.60;1.00;;;;;;4993958;28;20056;-82
2023/07/20 04:23:54;;;;;;;0.60;0.50;;;15.60;1.00;;;;;;5006184;28;20441;-82
2023/07/20 04:26:22;;;;;;;0.60;0.40;;;15.60;1.00;;;;;;4997277;28;20492;-82
2023/07/20 04:28:50;;;;;;;0.80;0.50;;;15.60;1.00;;;;;;5012212;28;20092;-82
2023/07/20 04:31:17;;;;;;;0.55;0.38;;;15.40;1.00;;;;;;4993143;28;20061;-82
2023/07/20 04:33:44;;;;;;;0.95;0.60;;;15.30;20.20;;;;;;4999607;28;20083;-83
2023/07/20 04:36:12;;;;;;;1.13;0.60;;;15.20;86.50;;;;;;5012281;28;20091;-83
2023/07/20 04:38:39;;;;;;;0.50;0.40;;;15.20;99.90;;;;;;4993446;28;20646;-82
2023/07/20 04:41:06;;;;;;;0.68;0.50;;;15.20;99.90;;;;;;4993706;28;20430;-82
2023/07/20 04:43:33;;;;;;;0.40;0.40;;;15.30;81.40;;;;;;4980217;28;20107;-83
2023/07/20 04:46:00;;;;;;;0.75;0.43;;;15.30;99.90;;;;;;5009341;28;20597;-83
2023/07/20 04:48:26;;;;;;;0.95;0.50;;;15.20;99.90;;;;;;4990744;28;20057;-83
2023/07/20 04:50:53;;;;;;;0.77;0.50;;;15.30;99.90;;;;;;4990523;28;20447;-83
2023/07/20 04:53:20;;;;;;;0.55;0.50;;;15.30;99.90;;;;;;5011228;28;20048;-82
2023/07/20 04:55:51;;;;;;;0.98;0.70;;;15.40;99.90;;;;;;5007572;28;20060;-84
2023/07/20 04:58:20;;;;;;;0.90;0.65;;;15.40;99.90;;;;;;4992191;28;20045;-83
2023/07/20 05:00:48;;;;;;;0.82;0.50;;;15.30;99.90;;;;;;5000447;28;20102;-83
2023/07/20 05:03:15;;;;;;;1.00;0.50;;;15.30;99.90;;;;;;5010407;28;20128;-83
2023/07/20 05:05:43;;;;;;;0.38;0.38;;;15.30;99.90;;;;;;5010188;28;20541;-82
2023/07/20 05:08:13;;;;;;;0.88;0.60;;;15.30;99.90;;;;;;4984133;28;20053;-82
2023/07/20 05:10:41;;;;;;;1.00;0.77;;;15.40;99.90;;;;;;5013935;28;20057;-83
2023/07/20 05:13:08;;;;;;;0.73;0.40;;;15.40;99.90;;;;;;5000003;28;20053;-82
2023/07/20 05:15:35;;;;;;;0.77;0.57;;;15.40;99.90;;;;;;5032397;28;20099;-82
2023/07/20 05:18:02;;;;;;;1.00;0.80;;;15.40;99.90;;;;;;4991244;28;20389;-82
2023/07/20 05:20:29;;;;;;;1.40;0.80;;;15.40;99.90;;;;;;5007900;28;20099;-82
2023/07/20 05:22:56;;;;;;;1.25;0.75;;;15.40;99.90;;;;;;4991550;28;20056;-83
2023/07/20 05:25:23;;;;;;;0.70;0.57;;;15.40;99.90;;;;;;4995733;28;20053;-81
2023/07/20 05:27:52;;;;;;;1.15;0.77;;;15.40;99.90;;;;;;5005557;28;20056;-82
2023/07/20 05:30:19;;;;;;;0.73;0.47;;;15.50;99.90;;;;;;5005633;28;20076;-83
2023/07/20 05:32:50;;;;;;;0.75;0.63;;;15.50;99.90;;;;;;4988061;28;20567;-82
2023/07/20 05:35:18;;;;;;;0.65;0.50;;;15.50;99.90;;;;;;5018349;28;20050;-82
2023/07/20 05:37:45;;;;;;;0.98;0.63;;;15.60;99.90;;;;;;4989936;28;20057;-83
2023/07/20 05:40:14;;;;;;;0.60;0.60;;;15.60;99.90;;;;;;5014500;28;20141;-81
2023/07/20 05:42:41;;;;;;;0.70;0.50;;;15.70;99.90;;;;;;4994975;28;20049;-82
2023/07/20 05:45:09;;;;;;;1.08;0.73;;;15.70;99.90;;;;;;5017509;28;20045;-82
2023/07/20 05:47:36;;;;;;;0.30;0.30;;;15.70;99.90;;;;;;5024140;28;20080;-81
2023/07/20 05:50:03;;;;;;;0.50;0.50;;;15.80;99.90;;;;;;4991542;28;20122;-82
2023/07/20 05:52:31;;;;;;;0.65;0.60;;;15.80;99.90;;;;;;5018879;28;20049;-83
2023/07/20 05:54:58;;;;;;;0.82;0.60;;;15.90;99.90;;;;;;5038797;28;20067;-82
2023/07/20 05:57:25;;;;;;;0.93;0.50;;;15.90;99.90;;;;;;4989934;28;20045;-83
2023/07/20 05:59:52;;;;;;;0.90;0.52;;;16.00;99.90;;;;;;5003556;28;20047;-81
2023/07/20 06:02:19;;;;;;;0.75;0.57;;;16.00;99.90;;;;;;5019093;28;20065;-82
2023/07/20 06:04:47;;;;;;;0.95;0.63;;;16.10;99.90;;;;;;5009255;28;20051;-81
2023/07/20 06:07:13;;;;;;;1.10;0.73;;;16.10;52.80;;;;;;5008074;28;20055;-82
2023/07/20 06:09:40;;;;;;;0.80;0.70;;;16.10;4.00;;;;;;4993028;28;20377;-82
2023/07/20 06:12:09;;;;;;;1.42;0.60;;;16.20;1.00;;;;;;4987931;28;20061;-81
2023/07/20 06:14:36;;;;;;;1.08;0.82;;;16.30;99.90;;;;;;5040431;28;20770;-82
2023/07/20 06:17:03;;;;;;;0.93;0.60;;;16.30;99.90;;;;;;5006701;28;20052;-82
2023/07/20 06:19:30;;;;;;;5.25;2.83;;;16.40;38.30;;;;;;5007965;28;20041;-80
2023/07/20 06:21:57;;;;;;;2.88;1.60;;;16.40;1.00;;;;;;5022041;28;20053;-81
2023/07/20 06:24:24;;;;;;;1.90;1.27;;;16.40;99.90;;;;;;5037160;28;20048;-82
2023/07/20 06:26:51;;;;;;;1.75;1.00;;;16.50;1.00;;;;;;4996505;28;20134;-82
2023/07/20 06:29:19;;;;;;;1.73;0.88;;;16.70;1.00;;;;;;5000405;28;20051;-82
2023/07/20 06:31:46;;;;;;;1.35;1.00;;;16.80;99.90;;;;;;4987342;28;20484;-82
2023/07/20 06:34:13;;;;;;;2.25;0.80;;;16.80;99.90;;;;;;5018042;28;20516;-81
2023/07/20 06:36:40;;;;;;;1.00;0.80;;;17.00;55.90;;;;;;4990610;28;20061;-81
2023/07/20 06:39:06;;;;;;;1.05;0.75;;;17.10;1.00;;;;;;4992679;28;20048;-82
2023/07/20 06:41:36;;;;;;;1.25;0.52;;;17.30;99.90;;;;;;5042130;28;20166;-82
2023/07/20 06:44:07;;;;;;;0.55;0.40;;;17.50;99.90;;;;;;5011860;28;20688;-82
2023/07/20 06:46:35;;;;;;;0.55;0.50;;;17.80;99.90;;;;;;5013290;28;20045;-81
2023/07/20 06:49:02;;;;;;;0.65;0.60;;;17.90;99.90;;;;;;5045661;28;20044;-82
2023/07/20 06:51:32;;;;;;;0.70;0.68;;;17.90;99.90;;;;;;5064028;28;20076;-82
2023/07/20 06:53:59;;;;;;;1.00;0.63;;;18.00;99.90;;;;;;5045096;28;20109;-81
2023/07/20 06:56:26;;;;;;;0.73;0.60;;;18.10;99.90;;;;;;5029657;28;20063;-80
2023/07/20 06:58:55;;;;;;;0.55;0.55;;;18.10;88.20;;;;;;5028827;28;20052;-81
2023/07/20 07:01:22;;;;;;;2.65;1.17;;;18.10;91.20;;;;;;5014905;28;20050;-81
2023/07/20 07:03:50;;;;;;;0.85;0.50;;;18.00;99.90;;;;;;5006128;28;20592;-81
2023/07/20 07:06:22;;;;;;;1.30;0.70;;;18.00;99.90;;;;;;4991015;28;20053;-81
2023/07/20 07:08:50;;;;;;;1.13;0.70;;;17.90;93.10;;;;;;5005627;28;20423;-82
2023/07/20 07:11:17;;;;;;;7.78;3.60;;;17.80;99.90;;;;;;4997663;28;20133;-81
2023/07/20 07:13:46;;;;;;;5.93;3.83;;;17.80;1.00;;;;;;5009926;28;20052;-82
2023/07/20 07:16:18;;;;;;;3.67;1.85;;;17.80;99.90;;;;;;5000380;28;20499;-81
2023/07/20 07:18:50;;;;;;;3.25;2.40;;;17.80;99.90;;;;;;5006056;28;20072;-81
2023/07/20 07:21:17;;;;;;;12.52;6.43;;;17.70;99.90;;;;;;5004297;28;20064;-81
2023/07/20 07:23:45;;;;;;;4.85;3.47;;;17.50;99.90;;;;;;4998155;28;20076;-81
2023/07/20 07:26:12;;;;;;;4.03;2.53;;;17.40;1.00;;;;;;4989650;28;20421;-81
2023/07/20 07:28:39;;;;;;;2.00;1.15;;;17.40;99.90;;;;;;5005075;28;20109;-80
2023/07/20 07:31:06;;;;;;;2.13;0.93;;;17.50;99.90;;;;;;4992953;28;20081;-80
2023/07/20 07:33:34;;;;;;;2.45;0.93;;;17.60;99.90;;;;;;5008203;28;20051;-81
2023/07/20 07:36:01;;;;;;;2.15;1.17;;;17.70;1.00;;;;;;5023544;28;20053;-81
2023/07/20 07:38:28;;;;;;;6.20;3.15;;;17.80;1.00;;;;;;5002993;28;20053;-81
2023/07/20 07:41:15;;;;;;;3.47;2.05;;;17.80;99.90;;;;;;5004666;28;20056;-82
2023/07/20 07:43:42;;;;;;;2.03;1.35;;;17.80;1.00;;;;;;5005540;28;20052;-82
2023/07/20 07:46:09;;;;;;;3.08;1.30;;;17.90;61.50;;;;;;4988325;28;20563;-81
2023/07/20 07:48:36;;;;;;;1.63;1.10;;;17.90;1.00;;;;;;5002794;28;20668;-81
2023/07/20 07:51:03;;;;;;;1.23;0.80;;;17.90;60.50;;;;;;4996353;28;20045;-81
2023/07/20 07:53:30;;;;;;;1.42;0.88;;;17.90;1.00;;;;;;4994451;28;20059;-80
2023/07/20 07:55:57;;;;;;;1.45;0.90;;;18.00;99.90;;;;;;5012824;28;20203;-76
2023/07/20 07:58:24;;;;;;;2.58;1.15;;;18.00;1.00;;;;;;5026443;28;20104;-76
2023/07/20 08:00:51;;;;;;;9.75;3.47;;;18.00;99.90;;;;;;5010070;28;20366;-76
2023/07/20 08:03:18;;;;;;;9.25;5.40;;;18.00;1.00;;;;;;5036471;28;20057;-75
2023/07/20 08:05:45;;;;;;;4.68;2.90;;;18.00;1.00;;;;;;5030732;28;20463;-76
2023/07/20 08:08:12;;;;;;;3.28;2.25;;;18.00;99.90;;;;;;5041637;28;20147;-76
2023/07/20 08:10:39;;;;;;;1.63;1.10;;;18.20;99.90;;;;;;5042227;28;20590;-76
2023/07/20 08:13:06;;;;;;;1.45;1.08;;;18.30;18.20;;;;;;5040787;28;20103;-75
2023/07/20 08:15:33;;;;;;;1.33;0.70;;;18.50;1.00;;;;;;5023640;28;20046;-76
2023/07/20 08:17:59;;;;;;;1.10;0.73;;;18.70;99.90;;;;;;5023264;28;20122;-76
2023/07/20 08:20:27;;;;;;;0.88;0.80;;;18.90;99.90;;;;;;5015951;28;20118;-76
2023/07/20 08:22:54;;;;;;;1.83;1.17;;;19.00;99.90;;;;;;5013890;28;20091;-75
2023/07/20 08:25:21;;;;;;;1.48;1.20;;;19.10;94.70;;;;;;4982200;28;20049;-76
2023/07/20 08:27:48;;;;;;;1.80;1.30;;;19.10;99.90;;;;;;4987613;28;20049;-76
2023/07/20 08:30:15;;;;;;;2.72;1.70;;;19.00;99.90;;;;;;5014454;28;20075;-76
2023/07/20 08:32:42;;;;;;;1.58;1.00;;;19.00;1.00;;;;;;5019788;28;20064;-75
2023/07/20 08:35:09;;;;;;;1.67;1.00;;;18.90;1.00;;;;;;5041671;28;20542;-76
2023/07/20 08:37:36;;;;;;;1.33;1.00;;;19.00;99.90;;;;;;4991084;28;20496;-75
2023/07/20 08:40:04;;;;;;;1.67;0.82;;;19.10;39.40;;;;;;5034613;28;20397;-77
2023/07/20 08:42:30;;;;;;;1.33;0.65;;;19.10;99.90;;;;;;5037650;28;20049;-76
2023/07/20 08:44:57;;;;;;;0.90;0.80;;;19.20;1.00;;;;;;5023638;28;20045;-75
2023/07/20 08:47:24;;;;;;;0.80;0.55;;;19.20;1.00;;;;;;5008030;28;20051;-76
2023/07/20 08:49:51;;;;;;;1.55;0.68;;;19.40;1.00;;;;;;5006114;28;20072;-76
2023/07/20 08:52:18;;;;;;;0.82;0.60;;;19.70;99.90;;;;;;5010696;28;20048;-76
2023/07/20 08:54:45;;;;;;;0.75;0.68;;;20.00;99.90;;;;;;5029205;28;20338;-75
2023/07/20 08:57:13;;;;;;;1.20;0.80;;;20.20;99.90;;;;;;5039261;28;20056;-76
2023/07/20 08:59:40;;;;;;;1.20;0.90;;;20.20;99.90;;;;;;5011695;28;20083;-76
2023/07/20 09:02:07;;;;;;;0.85;0.60;;;20.30;99.90;;;;;;5013344;28;20688;-75
2023/07/20 09:04:34;;;;;;;1.85;0.65;;;20.50;93.10;;;;;;4999979;28;20060;-76
2023/07/20 09:07:01;;;;;;;0.75;0.65;;;20.80;19.60;;;;;;4995129;28;20061;-76
2023/07/20 09:09:28;;;;;;;1.63;1.00;;;21.00;98.40;;;;;;5026915;28;20706;-76
2023/07/20 09:11:55;;;;;;;0.70;0.60;;;21.10;23.60;;;;;;5035930;28;20041;-76
2023/07/20 09:14:22;;;;;;;0.88;0.60;;;21.30;1.00;;;;;;5016403;28;20188;-76
2023/07/20 09:16:55;;;;;;;0.77;0.52;;;21.40;68.80;;;;;;4999711;28;20060;-76
2023/07/20 09:19:22;;;;;;;0.98;0.57;;;21.20;1.00;;;;;;5037363;28;20052;-75
2023/07/20 09:21:49;;;;;;;1.27;0.50;;;21.20;1.00;;;;;;5013784;28;20049;-75
2023/07/20 09:24:17;;;;;;;1.55;1.10;;;21.10;1.00;;;;;;5038999;28;20144;-75
2023/07/20 09:26:45;;;;;;;1.98;1.30;;;20.90;1.00;;;;;;4989187;28;20050;-75
2023/07/20 09:29:14;;;;;;;1.85;0.98;;;20.80;1.00;;;;;;5032619;28;20064;-75
2023/07/20 09:31:42;;;;;;;0.82;0.68;;;20.60;1.00;;;;;;5006566;28;20055;-76
2023/07/20 09:34:10;;;;;;;1.00;0.90;;;20.60;1.00;;;;;;5026419;28;20394;-76
2023/07/20 09:36:37;;;;;;;1.13;0.60;;;20.60;1.00;;;;;;5037382;28;20129;-75
2023/07/20 09:39:07;;;;;;;0.77;0.60;;;20.70;99.90;;;;;;5028995;28;20080;-76
2023/07/20 09:41:43;;;;;;;0.80;0.60;;;20.70;99.90;;;;;;5020148;28;20045;-75
2023/07/20 09:44:14;;;;;;;0.60;0.50;;;20.80;1.00;;;;;;4992098;28;20056;-76
2023/07/20 09:46:45;;;;;;;0.68;0.52;;;21.10;99.90;;;;;;5001088;28;20111;-76
2023/07/20 09:49:17;;;;;;;0.80;0.63;;;21.40;99.90;;;;;;5012430;28;20060;-75
2023/07/20 09:51:46;;;;;;;1.17;0.80;;;21.60;99.90;;;;;;4993040;28;20142;-75
2023/07/20 09:54:13;;;;;;;0.88;0.68;;;21.70;99.90;;;;;;4987574;28;20148;-74
2023/07/20 09:56:40;;;;;;;0.60;0.57;;;21.90;99.90;;;;;;5019703;28;20833;-81
2023/07/20 09:59:07;;;;;;;0.77;0.63;;;22.20;99.90;;;;;;5008134;28;20048;-81
2023/07/20 10:01:34;;;;;;;1.92;0.52;;;22.20;99.90;;;;;;4999476;28;20107;-81
2023/07/20 10:04:03;;;;;;;0.40;0.40;;;22.10;99.90;;;;;;5022672;28;20724;-82
2023/07/20 10:06:30;;;;;;;1.27;0.70;;;22.00;99.90;;;;;;4983078;28;20049;-81
2023/07/20 10:09:03;;;;;;;0.47;0.40;;;21.90;99.90;;;;;;5012262;28;20127;-80
2023/07/20 10:11:30;;;;;;;;;;;21.90;99.90;;;;;;4985922;28;20088;-82
2023/07/20 10:13:58;;;;;;;0.35;0.32;;;21.90;99.90;;;;;;5025053;28;19925;-81
2023/07/20 10:16:31;;;;;;;0.40;0.40;;;22.00;99.90;;;;;;5009912;28;20046;-81
2023/07/20 10:18:58;;;;;;;0.80;0.40;;;22.00;99.90;;;;;;5009838;28;20140;-81
2023/07/20 10:21:25;;;;;;;0.82;0.55;;;22.10;99.90;;;;;;5010685;28;20072;-81
2023/07/20 10:23:56;;;;;;;1.27;0.50;;;22.20;99.90;;;;;;5018072;28;20495;-82
2023/07/20 10:26:25;;;;;;;1.33;0.70;;;22.40;99.90;;;;;;5000903;28;20603;-81
2023/07/20 10:28:53;;;;;;;1.60;0.93;;;22.40;99.90;;;;;;4977383;28;20052;-81
2023/07/20 10:31:20;;;;;;;1.10;0.60;;;22.30;99.90;;;;;;4939076;28;1375786;-82
2023/07/20 10:33:46;;;;;;;1.67;1.00;;;22.30;99.90;;;;;;5019404;28;20053;-82
2023/07/20 10:36:14;;;;;;;0.80;0.55;;;22.00;99.90;;;;;;4989000;28;20509;-82
2023/07/20 10:38:47;;;;;;;0.80;0.50;;;21.90;99.90;;;;;;5017870;28;20053;-82
2023/07/20 10:41:27;;;;;;;0.40;0.30;;;21.90;99.90;;;;;;5041764;28;20516;-83
2023/07/20 10:44:04;;;;;;;0.93;0.47;;;22.20;99.90;;;;;;5024412;28;20052;-81
2023/07/20 10:46:34;;;;;;;0.30;0.30;;;22.30;99.90;;;;;;5010347;28;20509;-82
2023/07/20 10:49:02;;;;;;;1.30;0.50;;;22.50;95.50;;;;;;5041489;28;20049;-81
2023/07/20 10:51:30;;;;;;;0.30;0.30;;;22.60;99.20;;;;;;5027370;28;20045;-82
2023/07/20 10:53:58;;;;;;;1.70;0.90;;;22.80;99.90;;;;;;5012310;28;20127;-83
2023/07/20 10:56:31;;;;;;;0.90;0.50;;;22.60;95.10;;;;;;5012303;28;20088;-83
2023/07/20 10:58:59;;;;;;;;;;;22.60;91.40;;;;;;5045032;28;20055;-82
2023/07/20 11:01:36;;;;;;;0.32;0.30;;;22.60;44.80;;;;;;5033727;28;19921;-82
2023/07/20 11:04:05;;;;;;;1.65;0.80;;;22.50;35.00;;;;;;5010983;28;20063;-83
2023/07/20 11:06:33;;;;;;;0.57;0.50;;;22.40;50.90;;;;;;5012375;28;20101;-82
2023/07/20 11:09:06;;;;;;;0.50;0.50;;;22.60;35.40;;;;;;5028917;28;20254;-82
2023/07/20 11:11:36;;;;;;;0.52;0.40;;;22.80;26.10;;;;;;5045469;28;20059;-82
2023/07/20 11:14:24;;;;;;;0.90;0.52;;;23.30;16.10;;;;;;5027414;28;20056;-82
2023/07/20 11:16:51;;;;;;;0.57;0.40;;;23.60;1.20;;;;;;5043983;28;20052;-82
2023/07/20 11:19:25;;;;;;;1.20;0.60;;;23.70;1.00;;;;;;5023595;28;20106;-81
2023/07/20 11:21:56;;;;;;;0.43;0.30;;;23.50;1.00;;;;;;5012912;28;20057;-82
2023/07/20 11:24:30;;;;;;;0.57;0.40;;;23.30;1.00;;;;;;5037503;28;20063;-82
2023/07/20 11:26:58;;;;;;;0.40;0.30;;;23.50;1.00;;;;;;5004746;28;20041;-83
2023/07/20 11:29:28;;;;;;;0.40;0.40;;;23.80;1.00;;;;;;5026540;28;20055;-82
2023/07/20 11:31:59;;;;;;;0.40;0.40;;;24.10;1.00;;;;;;5027544;28;20060;-82
2023/07/20 11:34:27;;;;;;;0.57;0.40;;;24.60;1.00;;;;;;5032181;28;20083;-81
2023/07/20 11:36:54;;;;;;;1.23;0.30;;;25.00;1.00;;;;;;5042989;28;20052;-82
2023/07/20 11:39:25;;;;;;;0.68;0.43;;;25.20;1.00;;;;;;5032590;28;20459;-82
2023/07/20 11:41:54;;;;;;;0.65;0.60;;;24.90;1.00;;;;;;5026351;28;20052;-82
2023/07/20 11:44:28;;;;;;;0.65;0.40;;;24.80;1.00;;;;;;5013136;28;20065;-82
2023/07/20 11:47:11;;;;;;;0.85;0.60;;;24.90;1.00;;;;;;5011646;28;20133;-83
2023/07/20 11:49:40;;;;;;;0.65;0.50;;;25.00;1.00;;;;;;5042580;28;20056;-83
2023/07/20 11:52:08;;;;;;;0.85;0.60;;;25.30;1.00;;;;;;5026580;28;20153;-82
2023/07/20 11:54:35;;;;;;;0.45;0.40;;;25.20;1.00;;;;;;5039714;28;20055;-82
2023/07/20 11:57:03;;;;;;;0.98;0.50;;;24.80;1.00;;;;;;5047617;28;20060;-83
2023/07/20 11:59:31;;;;;;;0.82;0.40;;;24.60;1.00;;;;;;5025764;28;20056;-83
2023/07/20 12:02:02;;;;;;;0.50;0.45;;;24.70;1.00;;;;;;5025846;28;20052;-82
2023/07/20 12:04:31;;;;;;;0.85;0.70;;;24.80;1.00;;;;;;5009594;28;20488;-83
2023/07/20 12:06:59;;;;;;;0.70;0.60;;;25.20;1.00;;;;;;5024025;28;20052;-82
2023/07/20 12:09:25;;;;;;;0.50;0.50;;;25.60;1.00;;;;;;5026105;28;20053;-84
2023/07/20 12:12:11;;;;;;;0.60;0.60;;;25.90;1.00;;;;;;5043393;28;20056;-83
2023/07/20 12:14:38;;;;;;;0.70;0.70;;;26.10;1.00;;;;;;5007919;28;20497;-83
2023/07/20 12:17:05;;;;;;;0.93;0.73;;;26.10;1.00;;;;;;5009618;28;20079;-83
2023/07/20 12:19:33;;;;;;;1.33;0.90;;;26.40;1.00;;;;;;5025009;28;20100;-83
2023/07/20 12:22:00;;;;;;;0.70;0.68;;;26.60;1.00;;;;;;5042299;28;20053;-83
2023/07/20 12:24:27;;;;;;;1.38;0.63;;;26.90;1.00;;;;;;5022146;28;20454;-84
2023/07/20 12:26:58;;;;;;;0.70;0.55;;;26.40;1.00;;;;;;5015440;28;20053;-83
2023/07/20 12:29:26;;;;;;;0.60;0.50;;;25.90;1.00;;;;;;5027375;28;20148;-83
2023/07/20 12:31:53;;;;;;;0.85;0.70;;;25.40;1.00;;;;;;5022714;28;20122;-82
2023/07/20 12:34:20;;;;;;;0.52;0.52;;;25.10;1.00;;;;;;5039970;28;20053;-81
2023/07/20 12:36:47;;;;;;;0.80;0.60;;;25.10;1.00;;;;;;5025504;28;20045;-82
2023/07/20 12:39:14;;;;;;;0.55;0.55;;;25.90;1.00;;;;;;5014105;28;20056;-84
2023/07/20 12:41:42;;;;;;;1.35;0.80;;;27.10;1.00;;;;;;5009226;28;20063;-84
2023/07/20 12:44:09;;;;;;;0.60;0.50;;;27.70;1.00;;;;;;5040400;28;20519;-84
2023/07/20 12:46:37;;;;;;;0.70;0.40;;;28.50;1.00;;;;;;5008621;28;20565;-83
2023/07/20 12:49:04;;;;;;;0.70;0.52;;;28.00;1.00;;;;;;5009310;28;20444;-83
2023/07/20 12:51:30;;;;;;;0.80;0.60;;;27.90;1.00;;;;;;5025264;28;20056;-83
2023/07/20 12:53:57;;;;;;;1.17;0.73;;;28.10;1.00;;;;;;5021292;28;20152;-84
2023/07/20 12:56:24;;;;;;;0.95;0.80;;;27.90;1.00;;;;;;5022905;28;20400;-84